Time;durP1;ratioP1;P1;durP2;ratioP2;P2;SDS_P1;SDS_P2;PMS_P1;PMS_P2;Temp;Humidity;BMP_temperature;BMP_pressure;BME280_temperature;BME280_humidity;BME280_pressure;Samples;Min_cycle;Max_cycle;Signal;HPM_P1;HPM_P2
2022/04/28 00:01:59;;;;;;;4.97;3.58;;;13.20;99.90;;;;;;6156827;23;20437;-78
2022/04/28 00:04:24;;;;;;;5.68;3.75;;;13.20;99.90;;;;;;6183498;23;20437;-78
2022/04/28 00:06:50;;;;;;;3.90;3.58;;;13.20;99.90;;;;;;6156957;23;20512;-78
2022/04/28 00:09:16;;;;;;;6.35;3.92;;;13.20;99.90;;;;;;6183470;23;20020;-78
2022/04/28 00:11:42;;;;;;;6.18;4.13;;;13.30;99.90;;;;;;6183171;23;20048;-78
2022/04/28 00:14:08;;;;;;;5.15;3.38;;;13.30;99.90;;;;;;6183211;23;20452;-78
2022/04/28 00:16:35;;;;;;;7.97;3.70;;;13.20;99.90;;;;;;6156926;23;20009;-78
2022/04/28 00:19:02;;;;;;;3.67;3.38;;;13.10;99.90;;;;;;6183144;23;20563;-78
2022/04/28 00:21:27;;;;;;;3.88;3.53;;;13.10;99.90;;;;;;6181424;23;20096;-78
2022/04/28 00:23:53;;;;;;;5.65;3.20;;;13.00;99.90;;;;;;6182964;23;20036;-78
2022/04/28 00:26:20;;;;;;;3.58;3.00;;;13.00;99.90;;;;;;6183071;23;20012;-78
2022/04/28 00:28:46;;;;;;;3.88;3.47;;;13.00;99.90;;;;;;6182989;23;20007;-78
2022/04/28 00:31:12;;;;;;;5.30;3.35;;;13.00;99.90;;;;;;6183115;23;20340;-78
2022/04/28 00:33:41;;;;;;;15.40;3.45;;;13.10;99.90;;;;;;6183087;23;20001;-78
2022/04/28 00:36:08;;;;;;;7.22;3.72;;;13.10;99.90;;;;;;6183206;23;20001;-78
2022/04/28 00:38:33;;;;;;;4.53;3.42;;;13.10;99.90;;;;;;6183252;23;20012;-78
2022/04/28 00:40:59;;;;;;;5.03;4.20;;;13.20;99.90;;;;;;6183147;23;20329;-78
2022/04/28 00:43:29;;;;;;;3.78;3.47;;;13.20;99.90;;;;;;6182947;23;20475;-78
2022/04/28 00:45:55;;;;;;;4.60;3.75;;;13.30;99.90;;;;;;6182888;23;20433;-78
2022/04/28 00:51:07;;;;;;;3.50;3.20;;;13.20;99.90;;;;;;6183243;23;20032;-78
2022/04/28 00:53:43;;;;;;;4.97;3.22;;;13.10;99.90;;;;;;6156432;23;20009;-78
2022/04/28 00:56:09;;;;;;;3.78;3.38;;;13.10;99.90;;;;;;6156063;23;20341;-78
2022/04/28 00:58:39;;;;;;;4.13;3.72;;;13.10;99.90;;;;;;6183013;23;20016;-78
2022/04/28 01:01:05;;;;;;;4.45;3.65;;;13.10;99.90;;;;;;6182784;23;20001;-78
2022/04/28 01:03:30;;;;;;;3.88;3.58;;;13.10;99.90;;;;;;6182705;23;20015;-78
2022/04/28 01:05:57;;;;;;;6.60;3.85;;;13.10;99.90;;;;;;6182602;23;20028;-78
2022/04/28 01:08:23;;;;;;;4.10;3.70;;;13.10;99.90;;;;;;6182857;23;20001;-78
2022/04/28 01:10:51;;;;;;;5.88;3.60;;;13.10;99.90;;;;;;6182458;23;20001;-78
2022/04/28 01:13:17;;;;;;;4.60;4.10;;;13.20;99.90;;;;;;6182805;23;20001;-78
2022/04/28 01:15:49;;;;;;;4.00;3.63;;;13.10;99.90;;;;;;6182641;23;19993;-78
2022/04/28 01:18:16;;;;;;;5.40;3.75;;;13.10;99.90;;;;;;6180891;23;20011;-78
2022/04/28 01:20:43;;;;;;;4.57;3.90;;;13.20;99.90;;;;;;6182583;23;20001;-78
2022/04/28 01:23:10;;;;;;;5.55;4.75;;;13.20;99.90;;;;;;6156753;23;20038;-78
2022/04/28 01:25:35;;;;;;;5.65;4.50;;;13.30;99.90;;;;;;6159413;23;20383;-78
2022/04/28 01:28:01;;;;;;;4.20;3.78;;;13.30;99.90;;;;;;6185913;23;20001;-78
2022/04/28 01:30:28;;;;;;;5.28;4.15;;;13.30;99.90;;;;;;6185883;23;20008;-78
2022/04/28 01:32:57;;;;;;;6.55;4.70;;;13.30;99.90;;;;;;6186138;23;20545;-78
2022/04/28 01:35:23;;;;;;;3.72;3.38;;;13.40;99.90;;;;;;6159266;23;20009;-78
2022/04/28 01:37:49;;;;;;;6.53;4.30;;;13.50;99.90;;;;;;6159619;23;20083;-79
2022/04/28 01:40:16;;;;;;;4.40;3.40;;;13.50;99.90;;;;;;6185790;23;20025;-78
2022/04/28 01:42:45;;;;;;;6.00;4.18;;;13.40;99.90;;;;;;6159433;23;20012;-78
2022/04/28 01:45:11;;;;;;;4.40;3.67;;;13.40;99.90;;;;;;6185946;23;20001;-78
2022/04/28 01:47:39;;;;;;;4.93;4.40;;;13.40;99.90;;;;;;6159495;23;20001;-78
2022/04/28 01:50:10;;;;;;;5.50;3.92;;;13.50;99.90;;;;;;6186056;23;20001;-78
2022/04/28 01:55:22;;;;;;;4.90;4.20;;;13.50;99.90;;;;;;6185972;23;20055;-78
2022/04/28 01:57:48;;;;;;;5.13;4.10;;;13.50;99.90;;;;;;6159353;23;20009;-78
2022/04/28 02:00:14;;;;;;;5.80;3.70;;;13.60;99.90;;;;;;6185811;23;20004;-78
2022/04/28 02:02:41;;;;;;;5.78;3.88;;;13.60;99.90;;;;;;6186111;23;20019;-78
2022/04/28 02:05:09;;;;;;;5.25;3.50;;;13.60;99.90;;;;;;6185813;23;20001;-78
2022/04/28 02:07:35;;;;;;;4.95;3.75;;;13.60;99.90;;;;;;6185848;23;20018;-78
2022/04/28 02:10:02;;;;;;;4.25;3.63;;;13.60;99.90;;;;;;6186094;23;20025;-78
2022/04/28 02:12:28;;;;;;;6.45;3.95;;;13.50;99.90;;;;;;6159498;23;20001;-78
2022/04/28 02:14:54;;;;;;;7.68;4.63;;;13.40;99.90;;;;;;6186009;23;20004;-78
2022/04/28 02:17:23;;;;;;;3.70;3.30;;;13.40;99.90;;;;;;6185821;23;20084;-78
2022/04/28 02:19:49;;;;;;;5.00;3.97;;;13.40;99.90;;;;;;6186053;23;20008;-78
2022/04/28 02:22:15;;;;;;;7.10;3.25;;;13.40;99.90;;;;;;6173319;23;20001;-78
2022/04/28 02:24:41;;;;;;;5.13;4.15;;;13.40;99.90;;;;;;6159551;23;20013;-78
2022/04/28 02:27:07;;;;;;;6.10;4.35;;;13.40;99.90;;;;;;6185696;23;20429;-78
2022/04/28 02:29:34;;;;;;;6.25;3.95;;;13.40;99.90;;;;;;6185969;23;20079;-78
2022/04/28 02:31:59;;;;;;;4.82;4.30;;;13.30;99.90;;;;;;6185619;23;20063;-78
2022/04/28 02:34:25;;;;;;;6.72;4.05;;;13.30;99.90;;;;;;6185083;23;19998;-78
2022/04/28 02:36:51;;;;;;;5.38;3.95;;;13.20;99.90;;;;;;6183866;23;20459;-78
2022/04/28 02:39:18;;;;;;;4.78;3.53;;;13.20;99.90;;;;;;6184061;23;20088;-78
2022/04/28 02:41:45;;;;;;;4.68;3.28;;;13.20;99.90;;;;;;6184096;23;20040;-78
2022/04/28 02:44:14;;;;;;;5.13;3.85;;;13.20;99.90;;;;;;6184128;23;20001;-78
2022/04/28 02:46:45;;;;;;;4.82;3.90;;;13.20;99.90;;;;;;6183676;23;20040;-79
2022/04/28 02:49:12;;;;;;;4.17;3.53;;;13.20;99.90;;;;;;6183979;23;19997;-79
2022/04/28 02:51:38;;;;;;;5.22;3.85;;;13.10;99.90;;;;;;6183968;23;20024;-79
2022/04/28 02:54:05;;;;;;;4.15;3.80;;;13.10;99.90;;;;;;6157317;23;20001;-79
2022/04/28 02:56:31;;;;;;;6.63;3.80;;;13.10;99.90;;;;;;6183991;23;20063;-79
2022/04/28 02:58:58;;;;;;;4.22;3.80;;;13.10;99.90;;;;;;6157506;23;20396;-79
2022/04/28 03:01:24;;;;;;;4.50;4.10;;;13.10;99.90;;;;;;6157553;23;20009;-79
2022/04/28 03:03:50;;;;;;;4.50;3.38;;;13.00;99.90;;;;;;6184099;23;20028;-79
2022/04/28 03:11:52;;;;;;;4.78;4.28;;;13.00;99.90;;;;;;6183885;23;20016;-79
2022/04/28 03:14:19;;;;;;;4.68;4.15;;;13.00;99.90;;;;;;6183922;23;20001;-79
2022/04/28 03:16:46;;;;;;;9.02;3.97;;;13.00;99.90;;;;;;6183713;23;20088;-79
2022/04/28 03:19:11;;;;;;;3.50;3.15;;;13.00;99.90;;;;;;6157281;23;20009;-78
2022/04/28 03:21:37;;;;;;;4.88;4.18;;;13.00;99.90;;;;;;6183642;23;20314;-78
2022/04/28 03:24:04;;;;;;;4.15;3.75;;;13.00;99.90;;;;;;6183515;23;20092;-78
2022/04/28 03:26:30;;;;;;;4.63;3.80;;;13.00;99.90;;;;;;6157177;23;20336;-78
2022/04/28 03:28:56;;;;;;;5.95;4.00;;;13.00;99.90;;;;;;6183613;23;20002;-78
2022/04/28 03:31:22;;;;;;;4.05;3.60;;;13.00;99.90;;;;;;6157152;23;20497;-78
2022/04/28 03:33:48;;;;;;;4.47;3.58;;;13.00;99.90;;;;;;6156910;23;20005;-78
2022/04/28 03:38:58;;;;;;;3.60;3.05;;;13.00;99.90;;;;;;6183813;23;20055;-78
2022/04/28 03:41:24;;;;;;;4.18;3.60;;;12.90;99.90;;;;;;6183451;23;20033;-78
2022/04/28 03:43:50;;;;;;;4.35;3.63;;;12.90;99.90;;;;;;6156869;23;20004;-78
2022/04/28 03:46:17;;;;;;;7.15;3.72;;;13.00;99.90;;;;;;6183026;23;20005;-76
2022/04/28 03:48:44;;;;;;;4.30;3.15;;;13.00;99.90;;;;;;6183419;23;20044;-76
2022/04/28 03:51:10;;;;;;;6.00;3.63;;;12.90;99.90;;;;;;6183479;23;20001;-76
2022/04/28 03:53:36;;;;;;;4.38;3.28;;;12.90;99.90;;;;;;6183419;23;20044;-76
2022/04/28 03:56:03;;;;;;;3.90;3.03;;;13.00;99.90;;;;;;6183379;23;20013;-76
2022/04/28 03:58:28;;;;;;;4.05;3.42;;;13.00;99.90;;;;;;6183481;23;20001;-76
2022/04/28 04:00:54;;;;;;;5.18;3.28;;;13.00;99.90;;;;;;6183323;23;20001;-76
2022/04/28 04:03:20;;;;;;;4.85;3.10;;;13.00;99.90;;;;;;6183518;23;20083;-76
2022/04/28 04:05:47;;;;;;;3.35;3.00;;;13.00;99.90;;;;;;6183348;23;20241;-76
2022/04/28 04:08:13;;;;;;;3.60;2.95;;;13.00;99.90;;;;;;6183472;23;19997;-76
2022/04/28 04:10:39;;;;;;;3.17;2.88;;;13.00;99.90;;;;;;6183167;23;20487;-76
2022/04/28 04:13:05;;;;;;;3.50;3.05;;;12.90;99.90;;;;;;6183230;23;20001;-76
2022/04/28 04:15:32;;;;;;;4.38;2.92;;;12.90;99.90;;;;;;6183306;23;20008;-76
2022/04/28 04:17:58;;;;;;;3.75;2.80;;;13.00;99.90;;;;;;6156920;23;20016;-75
2022/04/28 04:20:25;;;;;;;3.28;2.88;;;13.00;99.90;;;;;;6183053;23;20333;-76
2022/04/28 04:22:52;;;;;;;5.57;2.80;;;13.00;99.90;;;;;;6183078;23;20009;-76
2022/04/28 04:25:18;;;;;;;3.20;2.90;;;13.00;99.90;;;;;;6156617;23;20012;-76
2022/04/28 04:27:44;;;;;;;3.35;3.05;;;13.00;99.90;;;;;;6156333;23;20001;-76
2022/04/28 04:32:55;;;;;;;3.17;2.90;;;13.00;99.90;;;;;;6182675;23;20060;-76
2022/04/28 04:35:24;;;;;;;4.28;2.85;;;13.00;99.90;;;;;;6156259;23;20013;-76
2022/04/28 04:37:51;;;;;;;3.03;2.75;;;13.00;99.90;;;;;;6183054;23;20005;-75
2022/04/28 04:40:17;;;;;;;3.90;3.10;;;13.00;99.90;;;;;;6182906;23;20021;-75
2022/04/28 04:42:43;;;;;;;6.22;2.70;;;13.00;99.90;;;;;;6182393;23;20008;-75
2022/04/28 04:45:11;;;;;;;3.60;2.78;;;13.00;99.90;;;;;;6181893;23;20032;-75
2022/04/28 04:47:38;;;;;;;3.00;2.42;;;13.00;99.90;;;;;;6155197;23;20012;-75
2022/04/28 04:50:06;;;;;;;2.92;2.67;;;13.10;99.90;;;;;;6181532;23;19997;-75
2022/04/28 04:52:32;;;;;;;4.38;3.00;;;13.10;99.90;;;;;;6181838;23;20381;-75
2022/04/28 04:54:58;;;;;;;2.97;2.63;;;13.10;99.90;;;;;;6182015;23;19997;-75
2022/04/28 04:57:27;;;;;;;4.10;2.53;;;13.10;99.90;;;;;;6181208;23;20005;-75
2022/04/28 04:59:53;;;;;;;2.67;2.47;;;13.20;99.90;;;;;;6181308;23;20009;-75
2022/04/28 05:02:19;;;;;;;2.75;2.40;;;13.20;99.90;;;;;;6155631;23;20083;-75
2022/04/28 05:04:45;;;;;;;2.95;2.70;;;13.20;99.90;;;;;;6182832;23;20052;-75
2022/04/28 05:07:11;;;;;;;5.00;3.13;;;13.20;99.90;;;;;;6182670;23;20012;-75
2022/04/28 05:09:37;;;;;;;3.17;2.95;;;13.20;99.90;;;;;;6156406;23;20005;-75
2022/04/28 05:12:05;;;;;;;2.90;2.63;;;13.20;99.90;;;;;;6182758;23;19997;-75
2022/04/28 05:14:31;;;;;;;3.22;2.92;;;13.20;99.90;;;;;;6182727;23;20395;-76
2022/04/28 05:16:58;;;;;;;4.50;2.80;;;13.20;99.90;;;;;;6182823;23;20064;-75
2022/04/28 05:19:24;;;;;;;3.55;2.72;;;13.20;99.90;;;;;;6182542;23;20027;-75
2022/04/28 05:21:50;;;;;;;3.90;2.80;;;13.30;99.90;;;;;;6156344;23;20437;-75
2022/04/28 05:24:16;;;;;;;3.47;3.08;;;13.30;99.90;;;;;;6182320;23;20341;-75
2022/04/28 05:26:42;;;;;;;4.35;2.97;;;13.30;99.90;;;;;;6156175;23;20016;-75
2022/04/28 05:29:08;;;;;;;3.40;2.80;;;13.40;99.90;;;;;;6182660;23;20001;-75
2022/04/28 05:31:34;;;;;;;2.72;2.53;;;13.40;99.90;;;;;;6182529;23;20381;-76
2022/04/28 05:34:00;;;;;;;5.30;2.80;;;13.40;99.90;;;;;;6156326;23;20495;-75
2022/04/28 05:36:28;;;;;;;6.78;3.00;;;13.50;99.90;;;;;;6182800;23;20005;-75
2022/04/28 05:38:56;;;;;;;4.65;2.40;;;13.50;99.90;;;;;;6156407;23;20459;-75
2022/04/28 05:41:23;;;;;;;3.17;2.70;;;13.50;99.90;;;;;;6182623;23;20009;-75
2022/04/28 05:46:34;;;;;;;2.83;2.50;;;13.60;99.90;;;;;;6182527;23;20571;-75
2022/04/28 05:49:00;;;;;;;6.00;3.22;;;13.60;99.90;;;;;;6182466;23;20028;-75
2022/04/28 05:51:26;;;;;;;4.22;3.33;;;13.60;99.90;;;;;;6182621;23;20001;-75
2022/04/28 05:53:52;;;;;;;3.20;2.83;;;13.70;99.90;;;;;;6155007;23;20001;-75
2022/04/28 05:56:17;;;;;;;3.03;2.40;;;13.80;99.90;;;;;;6155963;23;20005;-75
2022/04/28 05:58:43;;;;;;;3.53;3.20;;;13.80;99.90;;;;;;6182517;23;20433;-75
2022/04/28 06:01:09;;;;;;;3.08;2.88;;;13.80;99.90;;;;;;6156045;23;20016;-75
2022/04/28 06:03:34;;;;;;;2.75;2.55;;;13.80;99.90;;;;;;6182543;23;20012;-75
2022/04/28 06:06:00;;;;;;;4.20;2.65;;;13.90;99.90;;;;;;6182294;23;20341;-75
2022/04/28 06:08:26;;;;;;;2.65;2.42;;;14.00;99.90;;;;;;6155714;23;20001;-75
2022/04/28 06:10:52;;;;;;;2.95;2.58;;;14.10;99.90;;;;;;6184242;23;20004;-75
2022/04/28 06:13:17;;;;;;;5.15;2.83;;;14.10;99.90;;;;;;6184080;23;20001;-75
2022/04/28 06:15:43;;;;;;;3.25;2.67;;;14.20;99.90;;;;;;6184100;23;20005;-75
2022/04/28 06:18:09;;;;;;;3.42;2.60;;;14.20;99.90;;;;;;6184316;23;20043;-75
2022/04/28 06:20:35;;;;;;;6.75;2.50;;;14.30;99.90;;;;;;6184427;23;20005;-76
2022/04/28 06:23:00;;;;;;;2.45;2.25;;;14.30;99.90;;;;;;6184135;23;20024;-76
2022/04/28 06:25:27;;;;;;;3.15;2.55;;;14.40;99.90;;;;;;6183918;23;20005;-75
2022/04/28 06:27:53;;;;;;;3.65;3.35;;;14.50;99.90;;;;;;6184339;23;20001;-75
2022/04/28 06:30:19;;;;;;;3.45;2.60;;;14.50;99.90;;;;;;6183950;23;20024;-75
2022/04/28 06:32:45;;;;;;;5.43;3.38;;;14.50;99.90;;;;;;6184193;23;20001;-75
2022/04/28 06:35:11;;;;;;;4.13;3.30;;;14.60;99.90;;;;;;6184093;23;20034;-75
2022/04/28 06:37:37;;;;;;;4.30;3.03;;;14.60;99.90;;;;;;6184035;23;20452;-75
2022/04/28 06:40:03;;;;;;;3.15;2.70;;;14.60;99.90;;;;;;6183994;23;19997;-75
2022/04/28 06:42:29;;;;;;;3.05;2.30;;;14.70;99.90;;;;;;6184035;23;20005;-75
2022/04/28 06:44:55;;;;;;;3.22;2.70;;;14.70;99.90;;;;;;6184133;23;20027;-75
2022/04/28 06:47:21;;;;;;;2.28;2.17;;;14.80;99.90;;;;;;6159044;23;20013;-75
2022/04/28 06:49:47;;;;;;;4.90;2.28;;;14.80;99.90;;;;;;6159419;23;20009;-75
2022/04/28 06:52:13;;;;;;;2.03;1.92;;;14.90;99.90;;;;;;6159574;23;20001;-75
2022/04/28 06:54:39;;;;;;;2.95;2.20;;;14.90;99.90;;;;;;6185950;23;20330;-75
2022/04/28 06:57:05;;;;;;;2.95;2.15;;;14.90;99.90;;;;;;6185873;23;20314;-75
2022/04/28 06:59:31;;;;;;;2.00;1.70;;;15.00;99.90;;;;;;6185524;23;20005;-75
2022/04/28 07:01:56;;;;;;;2.10;2.00;;;15.10;99.90;;;;;;6185365;23;20011;-75
2022/04/28 07:04:22;;;;;;;3.10;1.58;;;15.10;99.90;;;;;;6185898;23;20005;-75
2022/04/28 07:06:48;;;;;;;2.28;1.90;;;15.20;99.90;;;;;;6186050;23;20008;-75
2022/04/28 07:09:13;;;;;;;3.40;1.73;;;15.20;99.90;;;;;;6185970;23;20076;-75
2022/04/28 07:11:39;;;;;;;1.70;1.60;;;15.20;99.90;;;;;;6185806;23;20005;-75
2022/04/28 07:14:05;;;;;;;2.63;1.75;;;15.30;99.90;;;;;;6185847;23;19997;-75
2022/04/28 07:16:31;;;;;;;2.42;1.83;;;15.30;99.90;;;;;;6185741;23;20417;-75
2022/04/28 07:18:56;;;;;;;2.55;1.40;;;15.30;99.90;;;;;;6185458;23;20071;-75
2022/04/28 07:21:22;;;;;;;1.08;1.08;;;15.30;99.90;;;;;;6158706;23;20015;-75
2022/04/28 07:23:48;;;;;;;2.67;1.48;;;15.40;99.90;;;;;;6185601;23;20059;-75
2022/04/28 07:26:14;;;;;;;1.70;1.42;;;15.40;99.90;;;;;;6185328;23;20009;-75
2022/04/28 07:28:40;;;;;;;1.23;1.13;;;15.40;99.90;;;;;;6185369;23;20001;-75
2022/04/28 07:31:05;;;;;;;1.20;1.10;;;15.40;99.90;;;;;;6185633;23;20399;-75
2022/04/28 07:33:31;;;;;;;0.77;0.70;;;15.40;99.90;;;;;;6185250;23;20001;-75
2022/04/28 07:35:57;;;;;;;0.70;0.70;;;15.30;99.90;;;;;;6185745;23;20068;-75
2022/04/28 07:38:23;;;;;;;1.52;1.15;;;15.30;99.90;;;;;;6185749;23;20087;-75
2022/04/28 07:40:50;;;;;;;1.10;1.10;;;15.30;99.90;;;;;;6185728;23;20005;-75
2022/04/28 07:43:16;;;;;;;0.80;0.80;;;15.30;99.90;;;;;;6173256;23;20083;-75
2022/04/28 07:45:41;;;;;;;0.90;0.90;;;15.40;99.90;;;;;;6158993;23;20036;-76
2022/04/28 07:48:07;;;;;;;2.45;1.10;;;15.40;99.90;;;;;;6185673;23;20001;-76
2022/04/28 07:50:34;;;;;;;1.38;1.05;;;15.50;99.90;;;;;;6184978;23;20001;-75
2022/04/28 07:53:00;;;;;;;0.63;0.63;;;15.50;99.90;;;;;;6158758;23;20006;-75
2022/04/28 07:55:26;;;;;;;1.15;0.90;;;15.50;99.90;;;;;;6158734;23;20448;-75
2022/04/28 07:57:52;;;;;;;2.25;0.90;;;15.60;99.90;;;;;;6184889;23;20024;-75
2022/04/28 08:00:18;;;;;;;0.90;0.90;;;15.60;99.90;;;;;;6185080;23;20024;-75
2022/04/28 08:02:44;;;;;;;1.20;1.10;;;15.70;99.90;;;;;;6184448;23;20058;-76
2022/04/28 08:05:09;;;;;;;0.85;0.85;;;15.70;99.90;;;;;;6157447;23;20489;-75
2022/04/28 08:07:35;;;;;;;1.00;1.00;;;15.60;99.90;;;;;;6184566;23;20001;-75
2022/04/28 08:10:04;;;;;;;1.08;0.93;;;15.60;99.90;;;;;;6158558;23;20012;-75
2022/04/28 08:12:30;;;;;;;2.25;1.02;;;15.60;99.90;;;;;;6185295;23;20433;-75
2022/04/28 08:14:55;;;;;;;2.60;0.68;;;15.70;99.90;;;;;;6157491;23;20437;-75
2022/04/28 08:17:21;;;;;;;0.95;0.85;;;15.80;99.90;;;;;;6184035;23;20007;-75
2022/04/28 08:19:47;;;;;;;0.77;0.77;;;15.80;99.90;;;;;;6157825;23;20040;-75
2022/04/28 08:22:13;;;;;;;0.85;0.85;;;15.80;99.10;;;;;;6184024;23;20001;-75
2022/04/28 08:24:39;;;;;;;2.42;0.85;;;15.70;98.80;;;;;;6158310;23;20032;-75
2022/04/28 08:27:04;;;;;;;0.95;0.75;;;15.70;99.40;;;;;;6184628;23;20040;-75
2022/04/28 08:29:30;;;;;;;2.90;1.15;;;15.80;99.90;;;;;;6184997;23;20028;-76
2022/04/28 08:31:56;;;;;;;5.00;0.90;;;15.80;99.90;;;;;;6184833;23;20040;-75
2022/04/28 08:34:22;;;;;;;0.80;0.68;;;15.90;99.80;;;;;;6184664;23;20001;-75
2022/04/28 08:36:49;;;;;;;1.10;1.00;;;16.00;99.30;;;;;;6185401;23;20001;-76
2022/04/28 08:39:15;;;;;;;1.02;1.00;;;16.10;99.50;;;;;;6185112;23;20008;-76
2022/04/28 08:41:47;;;;;;;1.38;1.05;;;16.10;99.60;;;;;;6184962;23;20078;-75
2022/04/28 08:44:17;;;;;;;2.25;0.90;;;16.10;98.70;;;;;;6185083;23;20413;-76
2022/04/28 08:46:52;;;;;;;0.88;0.70;;;16.10;98.50;;;;;;6184532;23;20087;-75
2022/04/28 08:49:24;;;;;;;2.35;1.20;;;16.20;98.70;;;;;;6184704;23;19997;-76
2022/04/28 08:51:55;;;;;;;2.08;1.10;;;16.30;98.40;;;;;;6185148;23;20008;-75
2022/04/28 08:54:23;;;;;;;1.88;1.20;;;16.30;99.30;;;;;;6158348;23;20367;-76
2022/04/28 08:56:50;;;;;;;2.53;1.17;;;16.30;98.70;;;;;;6184765;23;20001;-75
2022/04/28 08:59:16;;;;;;;1.40;1.10;;;16.30;98.70;;;;;;6184834;23;20036;-75
2022/04/28 09:01:42;;;;;;;1.40;1.30;;;16.30;98.80;;;;;;6184226;23;20001;-76
2022/04/28 09:04:12;;;;;;;1.48;1.13;;;16.50;99.90;;;;;;6184466;23;20076;-75
2022/04/28 09:06:40;;;;;;;1.42;1.27;;;16.60;99.90;;;;;;6184137;23;20005;-75
2022/04/28 09:09:10;;;;;;;3.53;1.80;;;16.70;99.90;;;;;;6184161;23;20305;-75
2022/04/28 09:11:40;;;;;;;2.58;1.27;;;16.70;98.50;;;;;;6184162;23;20004;-75
2022/04/28 09:14:26;;;;;;;1.00;1.00;;;16.80;98.50;;;;;;6158179;23;20001;-76
2022/04/28 09:16:59;;;;;;;1.40;1.30;;;16.70;98.20;;;;;;6183918;23;19999;-75
2022/04/28 09:19:26;;;;;;;1.45;1.30;;;16.80;97.70;;;;;;6184470;23;20001;-75
2022/04/28 09:22:00;;;;;;;1.50;1.40;;;16.90;99.30;;;;;;6184297;23;20037;-75
2022/04/28 09:24:27;;;;;;;1.80;1.70;;;16.90;98.80;;;;;;6184569;23;20040;-76
2022/04/28 09:26:54;;;;;;;1.98;1.30;;;17.00;99.90;;;;;;6157776;23;20016;-76
2022/04/28 09:29:21;;;;;;;2.20;1.55;;;17.00;98.80;;;;;;6184392;23;19997;-75
2022/04/28 09:31:49;;;;;;;1.55;1.40;;;16.90;97.90;;;;;;6158047;23;20059;-75
2022/04/28 09:34:20;;;;;;;1.00;1.00;;;16.90;97.70;;;;;;6184139;23;20001;-75
2022/04/28 09:36:47;;;;;;;1.67;1.42;;;17.20;97.10;;;;;;6158097;23;20009;-76
2022/04/28 09:44:56;;;;;;;0.90;0.90;;;17.40;97.40;;;;;;6185136;23;20500;-76
2022/04/28 09:47:24;;;;;;;1.45;1.33;;;17.50;97.10;;;;;;6186683;23;20048;-76
2022/04/28 09:49:57;;;;;;;1.63;1.52;;;17.50;97.80;;;;;;6183297;23;20072;-75
2022/04/28 09:52:26;;;;;;;1.55;1.45;;;17.40;94.10;;;;;;6181329;23;19997;-75
2022/04/28 09:54:53;;;;;;;1.35;1.25;;;17.30;94.80;;;;;;6180718;23;19997;-75
2022/04/28 09:57:22;;;;;;;1.50;1.35;;;17.60;95.00;;;;;;6154889;23;20012;-75
2022/04/28 09:59:49;;;;;;;1.17;1.17;;;17.70;94.00;;;;;;6154716;23;20032;-76
2022/04/28 10:02:24;;;;;;;1.25;1.17;;;17.80;91.60;;;;;;6169450;23;20001;-75
2022/04/28 10:04:51;;;;;;;1.25;1.20;;;17.70;91.60;;;;;;6180230;23;20460;-75
2022/04/28 10:07:18;;;;;;;2.85;1.50;;;17.70;91.30;;;;;;6181186;23;20005;-75
2022/04/28 10:09:49;;;;;;;1.30;1.20;;;17.70;90.50;;;;;;6180446;23;20513;-76
2022/04/28 10:12:18;;;;;;;1.60;1.50;;;17.80;92.50;;;;;;6153513;23;19993;-75
2022/04/28 10:14:46;;;;;;;1.92;1.38;;;17.80;90.80;;;;;;6152725;23;20028;-75
2022/04/28 10:17:25;;;;;;;2.90;1.27;;;18.00;91.70;;;;;;6180305;23;20349;-76
2022/04/28 10:19:56;;;;;;;1.85;1.75;;;18.00;90.30;;;;;;6180727;23;20009;-75
2022/04/28 10:22:29;;;;;;;1.58;1.48;;;18.20;92.30;;;;;;6179946;23;20005;-76
2022/04/28 10:33:19;;;;;;;1.58;1.42;;;18.30;90.00;;;;;;6180617;23;20093;-74
2022/04/28 10:35:48;;;;;;;1.30;1.20;;;18.30;88.80;;;;;;6182331;23;20504;-75
2022/04/28 10:38:21;;;;;;;1.75;1.65;;;18.30;88.60;;;;;;6182978;23;20005;-75
2022/04/28 10:41:04;;;;;;;4.50;1.70;;;18.70;89.20;;;;;;6155840;23;20043;-75
2022/04/28 10:43:33;;;;;;;1.88;1.77;;;18.80;86.20;;;;;;6183141;23;20005;-75
2022/04/28 10:46:08;;;;;;;1.90;1.80;;;18.90;86.90;;;;;;6181737;23;20012;-75
2022/04/28 10:48:43;;;;;;;1.90;1.67;;;18.90;85.50;;;;;;6181581;23;20079;-75
2022/04/28 10:51:13;;;;;;;2.05;1.38;;;19.00;83.70;;;;;;6155179;23;20068;-76
2022/04/28 10:54:10;;;;;;;2.38;2.00;;;19.10;86.20;;;;;;6182016;23;19997;-75
2022/04/28 10:56:42;;;;;;;1.80;1.70;;;19.40;88.90;;;;;;6182096;23;20052;-75
2022/04/28 10:59:29;;;;;;;1.95;1.83;;;19.60;88.20;;;;;;6155296;23;20008;-75
2022/04/28 11:01:56;;;;;;;1.70;1.60;;;19.70;84.30;;;;;;6182115;23;20496;-75
2022/04/28 11:04:24;;;;;;;1.80;1.70;;;19.70;84.70;;;;;;6158186;23;20071;-78
2022/04/28 11:06:57;;;;;;;2.00;1.90;;;19.80;84.20;;;;;;6185939;23;20435;-79
2022/04/28 11:09:40;;;;;;;2.08;1.98;;;19.90;82.60;;;;;;6159205;23;20437;-79
2022/04/28 11:12:16;;;;;;;1.70;1.60;;;20.00;87.10;;;;;;6186128;23;20055;-79
2022/04/28 11:15:06;;;;;;;1.70;1.60;;;20.10;82.10;;;;;;6159791;23;20008;-79
2022/04/28 11:17:35;;;;;;;1.63;1.52;;;20.10;85.30;;;;;;6150764;23;20337;-79
2022/04/28 11:20:07;;;;;;;2.30;2.10;;;20.10;83.90;;;;;;6185987;23;20001;-79
2022/04/28 11:22:33;;;;;;;2.42;2.22;;;20.20;82.70;;;;;;6186037;23;20063;-78
2022/04/28 11:24:59;;;;;;;2.28;2.17;;;20.30;80.70;;;;;;6185914;23;20000;-79
2022/04/28 11:27:29;;;;;;;3.80;2.40;;;20.40;81.40;;;;;;6186018;23;20009;-79
2022/04/28 11:29:57;;;;;;;2.47;2.28;;;20.50;79.60;;;;;;6185785;23;20004;-79
2022/04/28 11:32:23;;;;;;;2.97;1.95;;;20.40;77.20;;;;;;6185823;23;20096;-78
2022/04/28 11:34:50;;;;;;;4.00;2.45;;;20.50;82.00;;;;;;6186050;23;20004;-79
2022/04/28 11:37:22;;;;;;;3.38;2.42;;;20.60;80.90;;;;;;6183000;23;20005;-78
2022/04/28 11:39:50;;;;;;;3.03;2.63;;;20.70;82.50;;;;;;6156529;23;20009;-79
2022/04/28 11:42:17;;;;;;;3.05;2.85;;;20.70;79.40;;;;;;6183222;23;20001;-79
2022/04/28 11:44:52;;;;;;;2.78;2.58;;;20.90;81.60;;;;;;6182532;23;20036;-79
2022/04/28 11:47:22;;;;;;;4.05;3.30;;;21.10;83.40;;;;;;6182610;23;20000;-80
2022/04/28 11:49:51;;;;;;;2.80;2.60;;;21.20;80.60;;;;;;6182881;23;20425;-79
2022/04/28 11:52:28;;;;;;;2.38;2.17;;;21.20;78.20;;;;;;6157191;23;20009;-79
2022/04/28 11:55:08;;;;;;;2.67;2.30;;;21.30;78.10;;;;;;6183517;23;20333;-79
2022/04/28 11:57:39;;;;;;;2.83;2.63;;;21.30;76.60;;;;;;6183101;23;20455;-80
2022/04/28 12:00:11;;;;;;;3.85;3.50;;;21.40;76.70;;;;;;6185220;23;20015;-79
2022/04/28 12:02:38;;;;;;;7.18;3.03;;;21.30;75.70;;;;;;6185905;23;20071;-79
2022/04/28 12:05:15;;;;;;;2.53;2.33;;;21.20;73.30;;;;;;6185852;23;20001;-79
2022/04/28 12:07:51;;;;;;;3.90;3.60;;;21.20;74.90;;;;;;6158997;23;20037;-79
2022/04/28 12:16:08;;;;;;;3.15;2.72;;;21.90;79.50;;;;;;6184556;23;20393;-79
2022/04/28 12:21:21;;;;;;;2.70;2.60;;;22.00;72.50;;;;;;6185587;23;20349;-79
2022/04/28 12:23:50;;;;;;;3.88;3.58;;;22.00;73.30;;;;;;6158900;23;20023;-79
2022/04/28 12:26:19;;;;;;;3.17;2.88;;;22.00;70.00;;;;;;6158957;23;20120;-79
2022/04/28 12:28:45;;;;;;;3.15;2.85;;;22.10;72.10;;;;;;6185527;23;20001;-79
2022/04/28 12:31:13;;;;;;;4.32;3.00;;;22.30;71.90;;;;;;6185120;23;20051;-79
2022/04/28 12:33:40;;;;;;;3.22;2.92;;;22.30;72.70;;;;;;6156652;23;20005;-81
2022/04/28 12:36:13;;;;;;;4.65;3.15;;;22.40;73.70;;;;;;6184746;23;20010;-79
2022/04/28 12:38:49;;;;;;;4.53;3.28;;;22.30;70.80;;;;;;6157881;23;20009;-79
2022/04/28 12:41:22;;;;;;;3.17;2.97;;;22.10;69.50;;;;;;6181607;23;20309;-75
2022/04/28 12:43:52;;;;;;;3.35;3.15;;;22.30;71.70;;;;;;6181088;23;20001;-79
2022/04/28 12:46:29;;;;;;;3.67;3.30;;;22.50;71.20;;;;;;6155035;23;20016;-79
2022/04/28 12:48:57;;;;;;;3.63;3.33;;;22.50;71.70;;;;;;6181425;23;19997;-79
2022/04/28 12:51:24;;;;;;;4.93;3.92;;;22.60;72.30;;;;;;6154315;23;20008;-79
2022/04/28 12:53:52;;;;;;;4.50;4.10;;;22.60;66.70;;;;;;6155250;23;20204;-79
2022/04/28 12:56:30;;;;;;;3.40;3.15;;;22.60;65.80;;;;;;6183289;23;20005;-79
2022/04/28 12:58:59;;;;;;;5.22;3.63;;;22.70;68.20;;;;;;6183640;23;20008;-79
2022/04/28 13:01:27;;;;;;;3.95;3.65;;;22.70;67.10;;;;;;6183712;23;20377;-79
2022/04/28 13:03:55;;;;;;;2.95;2.72;;;22.70;68.50;;;;;;6157092;23;20009;-79
2022/04/28 13:06:35;;;;;;;5.85;3.78;;;22.80;69.20;;;;;;6183631;23;19997;-80
2022/04/28 13:09:02;;;;;;;3.80;3.50;;;22.80;65.00;;;;;;6183408;23;20001;-79
2022/04/28 13:11:32;;;;;;;3.53;3.00;;;23.00;66.60;;;;;;6183384;23;19997;-79
2022/04/28 13:14:00;;;;;;;3.42;3.17;;;23.00;67.10;;;;;;6183725;23;20220;-79
2022/04/28 13:16:27;;;;;;;3.40;3.20;;;23.20;68.50;;;;;;6183570;23;20001;-79
2022/04/28 13:18:53;;;;;;;6.05;3.28;;;23.40;70.50;;;;;;6183224;23;20314;-79
2022/04/28 13:21:20;;;;;;;3.38;3.10;;;23.50;68.00;;;;;;6157001;23;20012;-79
2022/04/28 13:23:46;;;;;;;4.22;3.88;;;23.30;66.90;;;;;;6183175;23;20087;-79
2022/04/28 13:26:14;;;;;;;3.90;3.60;;;23.30;64.90;;;;;;6156824;23;20476;-79
2022/04/28 13:28:40;;;;;;;4.25;3.85;;;23.10;66.30;;;;;;6156837;23;20087;-79
2022/04/28 13:31:07;;;;;;;4.15;3.78;;;23.00;66.50;;;;;;6156970;23;20005;-80
2022/04/28 13:33:34;;;;;;;4.78;3.33;;;22.90;63.10;;;;;;6157607;23;20001;-80